• Join FlightAware (Why Join?)
  • Login
  • US Flag 
10:37PM EDT


 

Airport Tracker/Info


-or-


 

Live Flight TrackerFlight Track Log ✈ DAL3698 ✈ 12-Apr-2013 ✈ KLAN - KMSP

Flight Track Log - Related Links

Times and Time Zones

All times are in EDT time to prevent confusion due to time zone crossing. See the DAL3698 flight status page for this flight to view local times or setup timezone preferences in your user account.

Time Position Orientation Groundspeed Altitude Reporting Facility
EDT Latitude Longitude Course Direction KTS MPH feet Rate Location/Type
07:26AM 42.7811 -84.6939 279° West 178 205 4,500  Level Minneapolis Center
07:27AM 42.7822 -84.7906 271° West 252 290 6,600 2,700 Climbing Minneapolis Center
07:28AM 42.7836 -84.8922 271° West 264 304 10,000 2,580 Climbing Minneapolis Center
07:29AM 42.7836 -84.9931 270° West 266 306 11,900 1,620 Climbing Minneapolis Center
07:30AM 42.7856 -85.1119 271° West 298 343 13,300 1,380 Climbing Minneapolis Center
07:31AM 42.7914 -85.5513 279° West  Level FlightAware Approximate
07:31AM 42.8219 -85.2347 292° West 342 394 14,800  Level Chicago Center
07:32AM 42.8581 -85.3600 292° West 355 409 16,400 1,740 Climbing Chicago Center
07:33AM 42.9028 -85.5144 292° West 363 418 18,400 1,740 Climbing Chicago Center
07:34AM 42.9403 -85.6436 292° West 366 421 20,000 1,320 Climbing Chicago Center
07:35AM 42.9778 -85.7739 292° West 367 422 21,200 1,140 Climbing Chicago Center
07:36AM 43.0150 -85.9056 291° West 371 427 22,400 1,020 Climbing Chicago Center
07:37AM 43.0525 -86.0269 293° West 374 430 23,300 1,020 Climbing Chicago Center
07:38AM 43.0964 -86.1911 290° West 390 449 24,500 1,020 Climbing Chicago Center
07:40AM 43.1350 -86.3286 291° West 386 444 25,500 960 Climbing Chicago Center
07:41AM 43.1739 -86.4658 291° West 387 445 26,500 840 Climbing Chicago Center
07:42AM 43.2119 -86.6044 291° West 391 450 27,300 720 Climbing Chicago Center
07:43AM 43.2506 -86.7439 291° West 392 451 28,000 300 Climbing Chicago Center
07:44AM 43.2900 -86.8906 290° West 410 472 28,000 60 Level Chicago Center
07:45AM 43.3328 -87.0408 291° West 423 487 28,200 540 Climbing Chicago Center
07:46AM 43.3744 -87.1903 291° West 422 486 29,200 840 Climbing Chicago Center
07:47AM 43.4117 -87.3364 289° West 408 470 30,000 360 Climbing Chicago Center
07:48AM 43.4547 -87.5019 290° West 411 473 30,000  Level Chicago Center
07:49AM 43.4956 -87.6542 290° West 424 488 30,000  Level Chicago Center
07:50AM 43.5367 -87.8092 290° West 430 495 30,000  Level Chicago Center
07:51AM 43.5781 -87.9667 290° West 438 504 30,000  Level Chicago Center
07:52AM 43.6264 -88.1525 290° West 442 509 30,000  Level Chicago Center
07:53AM 43.6531 -88.2583 289° West 445 512 30,000  Level Minneapolis Center
07:54AM 43.7008 -88.4458 289° West 448 516 30,000  Level Minneapolis Center
07:55AM 43.7486 -88.6328 290° West 444 511 30,000  Level Chicago Center
07:56AM 43.7808 -88.7625 289° West 436 502 30,000  Level Minneapolis Center
07:57AM 43.8247 -88.9461 288° West 431 496 30,000  Level Chicago Center
07:58AM 43.8597 -89.0756 291° West 433 498 30,000  Level Minneapolis Center
07:59AM 43.8967 -89.2331 288° West 431 496 30,000  Level Minneapolis Center
08:00AM 43.9361 -89.3889 289° West 429 494 30,000  Level Minneapolis Center
08:01AM 43.9831 -89.5403 293° West 429 494 30,000  Level Minneapolis Center
08:02AM 44.0433 -89.6853 300° West 433 498 30,000  Level Minneapolis Center
08:03AM 44.1022 -89.8308 299° West 432 497 30,000  Level Minneapolis Center
08:04AM 44.1700 -90.0011 299° West 432 497 30,000 -180 Level Minneapolis Center
08:05AM 44.2281 -90.1472 299° West 431 496 29,700 -540 Descending Minneapolis Center
08:06AM 44.2978 -90.3250 299° West 446 513 28,900 -780 Descending Minneapolis Center
08:07AM 44.3592 -90.4783 299° West 451 519 28,200 -720 Descending Minneapolis Center
08:08AM 44.4186 -90.6306 299° West 448 516 27,500 -840 Descending Minneapolis Center
08:09AM 44.4794 -90.7842 299° West 449 517 26,600 -1,260 Descending Minneapolis Center
08:10AM 44.5469 -90.9594 298° West 452 520 25,000 -1,560 Descending Minneapolis Center
08:11AM 44.6042 -91.1056 299° West 439 505 23,500 -1,500 Descending Minneapolis Center
08:12AM 44.6572 -91.2467 298° West 421 484 22,000 -1,500 Descending Minneapolis Center
08:13AM 44.7089 -91.3817 298° West 403 464 20,500 -1,440 Descending Minneapolis Center
08:14AM 44.7614 -91.5169 299° West 398 458 19,100 -1,620 Descending Minneapolis Center
08:15AM 44.8144 -91.6575 298° West 405 466 17,200 -1,680 Descending Minneapolis Center
08:16AM 44.8656 -91.7944 298° West 401 461 15,700 -1,560 Descending Minneapolis Center
08:17AM 44.9133 -91.8986 303° West 390 449 14,600 -1,620 Descending FAA TRACON SMA TRACON (SMA)
08:17AM 44.9297 -91.9400 299° West 393 452 14,100 -1,680 Descending FAA TRACON SMA TRACON (SMA)
08:17AM 44.9472 -91.9911 296° West 383 441 13,500 -1,500 Descending FAA TRACON SMA TRACON (SMA)
08:18AM 44.9611 -92.0308 296° West 374 430 13,100 -1,200 Descending FAA TRACON SMA TRACON (SMA)
08:18AM 44.9764 -92.0703 299° West 371 427 12,700 -1,440 Descending FAA TRACON SMA TRACON (SMA)
08:18AM 44.9925 -92.1189 295° West 366 421 12,200 -1,440 Descending FAA TRACON SMA TRACON (SMA)
08:19AM 45.0058 -92.1578 296° West 362 417 11,800 -1,200 Descending FAA TRACON SMA TRACON (SMA)
08:19AM 45.0208 -92.1972 298° West 361 415 11,400 -1,200 Descending FAA TRACON SMA TRACON (SMA)
08:19AM 45.0372 -92.2450 296° West 364 419 11,000 -780 Descending FAA TRACON SMA TRACON (SMA)
08:20AM 45.0472 -92.2864 289° West 360 414 10,900 -180 Descending FAA TRACON SMA TRACON (SMA)
08:20AM 45.0464 -92.3308 268° West 365 420 10,900  Level FAA TRACON SMA TRACON (SMA)
08:20AM 45.0386 -92.3858 259° West 372 428 10,900  Level FAA TRACON SMA TRACON (SMA)
08:21AM 45.0308 -92.4294 256° West 373 429 10,900 -180 Level FAA TRACON SMA TRACON (SMA)
08:21AM 45.0172 -92.4678 243° Southwest 364 419 10,800 -780 Descending FAA TRACON SMA TRACON (SMA)
08:22AM 44.9958 -92.5072 233° Southwest 338 389 10,400 -1,080 Descending FAA TRACON SMA TRACON (SMA)
08:22AM 44.9781 -92.5361 229° Southwest 321 369 10,100 -900 Descending FAA TRACON SMA TRACON (SMA)
08:22AM 44.9619 -92.5636 230° Southwest 304 350 9,800 -1,200 Descending FAA TRACON SMA TRACON (SMA)
08:23AM 44.9439 -92.5969 233° Southwest 284 327 9,300 -1,200 Descending FAA TRACON SMA TRACON (SMA)
08:23AM 44.9308 -92.6222 234° Southwest 269 310 9,000 -1,080 Descending FAA TRACON SMA TRACON (SMA)
08:23AM 44.9164 -92.6469 230° Southwest 261 300 8,600 -1,200 Descending FAA TRACON SMA TRACON (SMA)
08:24AM 44.8964 -92.6719 222° Southwest 255 293 8,200 -1,200 Descending FAA TRACON SMA TRACON (SMA)
08:24AM 44.8772 -92.6897 213° Southwest 259 298 7,800 -1,200 Descending FAA TRACON SMA TRACON (SMA)
08:24AM 44.8594 -92.7081 216° Southwest 261 300 7,400 -1,380 Descending FAA TRACON SMA TRACON (SMA)
08:25AM 44.8369 -92.7308 216° Southwest 258 297 6,900 -1,200 Descending FAA TRACON SMA TRACON (SMA)
08:25AM 44.8203 -92.7472 215° Southwest 245 282 6,600 -1,080 Descending FAA TRACON SMA TRACON (SMA)
08:25AM 44.8047 -92.7617 213° Southwest 231 266 6,200 -1,200 Descending FAA TRACON SMA TRACON (SMA)
08:26AM 44.7836 -92.7792 210° Southwest 224 258 5,800 -1,080 Descending FAA TRACON SMA TRACON (SMA)
08:26AM 44.7681 -92.7917 210° Southwest 216 249 5,500 -1,080 Descending FAA TRACON SMA TRACON (SMA)
08:26AM 44.7544 -92.8064 218° Southwest 213 245 5,100 -1,080 Descending FAA TRACON SMA TRACON (SMA)
08:27AM 44.7497 -92.8342 257° West 204 235 4,800 -900 Descending FAA TRACON SMA TRACON (SMA)
08:27AM 44.7503 -92.8569 272° West 190 219 4,500 -1,080 Descending FAA TRACON SMA TRACON (SMA)
08:27AM 44.7511 -92.8803 273° West 192 221 4,100 -900 Descending FAA TRACON SMA TRACON (SMA)
08:28AM 44.7569 -92.9083 286° West 199 229 3,900 -180 Descending FAA TRACON SMA TRACON (SMA)
08:28AM 44.7661 -92.9281 303° West 199 229 4,000  Climbing FAA TRACON SMA TRACON (SMA)
08:28AM 44.7747 -92.9481 301° West 196 226 3,900 -180 Descending FAA TRACON SMA TRACON (SMA)
08:29AM 44.7856 -92.9731 301° West 193 222 3,900  Level FAA TRACON SMA TRACON (SMA)
08:29AM 44.7936 -92.9928 300° West 192 221 3,900  Level FAA TRACON SMA TRACON (SMA)
08:29AM 44.8025 -93.0119 303° West 191 220 3,900 -660 Level FAA TRACON SMA TRACON (SMA)
08:30AM 44.8131 -93.0364 301° West 187 215 3,500 -1,080 Descending FAA TRACON SMA TRACON (SMA)
08:30AM 44.8206 -93.0544 300° West 178 205 3,200 -780 Descending FAA TRACON SMA TRACON (SMA)
08:30AM 44.8283 -93.0717 302° West 170 196 3,000 -900 Descending FAA TRACON SMA TRACON (SMA)
08:31AM 44.8372 -93.0919 302° West 161 185 2,600 -1,080 Descending FAA TRACON SMA TRACON (SMA)
08:31AM 44.8436 -93.1069 301° West 149 171 2,300 -780 Descending FAA TRACON SMA TRACON (SMA)
08:31AM 44.8500 -93.1219 301° West 144 166 2,100 -780 Descending FAA TRACON SMA TRACON (SMA)
08:32AM 44.8578 -93.1397 302° West 139 160 1,800 -900 Descending FAA TRACON SMA TRACON (SMA)
08:32AM 44.8639 -93.1536 302° West 138 159 1,500 -780 Descending FAA TRACON SMA TRACON (SMA)
08:32AM 44.8700 -93.1681 301° West 137 158 1,300 -780 Descending FAA TRACON SMA TRACON (SMA)
08:33AM 44.8778 -93.1858 302° West 136 157 1,000 -900 Descending FAA TRACON SMA TRACON (SMA)
08:34AM 44.8667 -93.2167 295° West  Level FlightAware Approximate
08:41AM 44.8820 -93.2218 295° West  Level Estimated